createdAt,value
2022-09-07T00:03:02.093Z,1.88
2022-09-07T00:08:06.464Z,1.58
2022-09-07T00:13:11.954Z,1.50
2022-09-07T00:18:16.124Z,1.60
2022-09-07T00:23:20.242Z,1.88
2022-09-07T00:28:25.716Z,2.15
2022-09-07T00:33:30.291Z,1.30
2022-09-07T00:38:34.924Z,1.67
2022-09-07T00:43:42.666Z,1.70
2022-09-07T00:48:51.784Z,2.30
2022-09-07T00:53:59.723Z,1.90
2022-09-07T00:59:05.781Z,2.63
2022-09-07T01:04:10.523Z,2.35
2022-09-07T01:09:18.201Z,1.90
2022-09-07T01:14:26.531Z,2.10
2022-09-07T01:20:09.828Z,1.92
2022-09-07T01:25:16.326Z,1.75
2022-09-07T01:30:24.140Z,2.10
2022-09-07T01:35:34.996Z,1.80
2022-09-07T01:40:49.808Z,1.85
2022-09-07T01:45:58.381Z,1.92
2022-09-07T01:51:05.029Z,1.90
2022-09-07T01:56:12.711Z,2.10
2022-09-07T02:01:25.385Z,1.92
2022-09-07T02:06:35.035Z,2.30
2022-09-07T02:11:42.496Z,2.28
2022-09-07T02:16:54.119Z,2.35
2022-09-07T02:22:01.994Z,2.47
2022-09-07T02:27:12.868Z,2.47
2022-09-07T02:32:18.532Z,2.78
2022-09-07T02:37:24.005Z,2.58
2022-09-07T02:42:31.628Z,2.17
2022-09-07T02:47:53.424Z,2.45
2022-09-07T02:53:15.803Z,2.42
2022-09-07T02:58:32.035Z,2.50
2022-09-07T03:03:47.829Z,2.58
2022-09-07T03:08:55.945Z,2.40
2022-09-07T03:14:13.339Z,2.50
2022-09-07T03:19:19.189Z,2.60
2022-09-07T03:24:23.250Z,2.90
2022-09-07T03:29:27.586Z,2.30
2022-09-07T03:34:33.620Z,2.45
2022-09-07T03:39:38.019Z,2.38
2022-09-07T03:44:42.215Z,2.83
2022-09-07T03:49:49.640Z,2.88
2022-09-07T03:54:53.764Z,3.22
2022-09-07T03:59:57.910Z,5.10
2022-09-07T04:05:03.495Z,6.88
2022-09-07T04:10:08.604Z,6.53
2022-09-07T04:15:12.821Z,2.92
2022-09-07T04:20:18.666Z,3.05
2022-09-07T04:25:22.778Z,3.10
2022-09-07T04:30:26.927Z,3.25
2022-09-07T04:35:33.998Z,2.88
2022-09-07T04:40:38.070Z,3.03
2022-09-07T04:45:43.965Z,2.47
2022-09-07T04:50:49.481Z,3.13
2022-09-07T04:55:53.709Z,3.08
2022-09-07T05:01:02.964Z,2.45
2022-09-07T05:11:14.819Z,2.63
2022-09-07T05:16:23.348Z,2.88
2022-09-07T05:21:31.328Z,2.92
2022-09-07T05:26:37.157Z,3.10
2022-09-07T05:31:41.227Z,2.95
2022-09-07T05:36:46.824Z,2.40
2022-09-07T05:41:50.942Z,2.75
2022-09-07T05:46:56.278Z,3.60
2022-09-07T05:52:01.802Z,2.78
2022-09-07T05:57:07.394Z,2.25
2022-09-07T06:02:15.045Z,2.60
2022-09-07T06:07:22.491Z,2.00
2022-09-07T06:12:27.384Z,2.35
2022-09-07T06:17:33.306Z,2.50
2022-09-07T06:22:39.768Z,2.40
2022-09-07T06:27:43.943Z,2.25
2022-09-07T06:32:48.727Z,3.08
2022-09-07T06:37:54.510Z,2.55
2022-09-07T06:42:58.974Z,2.38
2022-09-07T06:48:03.348Z,2.63
2022-09-07T06:58:35.530Z,2.45
2022-09-07T07:03:41.514Z,3.13
2022-09-07T07:08:47.700Z,3.38
2022-09-07T07:13:51.841Z,2.33
2022-09-07T07:18:57.270Z,2.63
2022-09-07T07:24:07.496Z,2.25
2022-09-07T07:29:14.730Z,2.13
2022-09-07T07:50:31.653Z,2.17
2022-09-07T07:55:43.238Z,2.55
2022-09-07T08:00:54.746Z,1.83
2022-09-07T08:06:08.043Z,1.83
2022-09-07T08:11:16.914Z,2.42
2022-09-07T08:21:25.368Z,1.98
2022-09-07T08:26:31.078Z,2.53
2022-09-07T08:31:35.345Z,2.28
2022-09-07T08:36:41.711Z,2.58
2022-09-07T08:42:00.820Z,2.20
2022-09-07T08:47:12.988Z,1.85
2022-09-07T08:52:20.319Z,1.63
2022-09-07T08:57:31.066Z,1.73
2022-09-07T09:02:42.472Z,2.03
2022-09-07T09:07:58.895Z,1.98
2022-09-07T09:13:16.874Z,1.30
2022-09-07T09:24:50.564Z,1.63
2022-09-07T09:29:55.896Z,1.50
2022-09-07T09:35:17.617Z,2.05
2022-09-07T09:40:27.181Z,1.60
2022-09-07T09:56:43.243Z,1.20
2022-09-07T10:07:22.506Z,1.63
2022-09-07T10:12:30.791Z,1.90
2022-09-07T10:22:41.485Z,1.42
2022-09-07T10:27:46.927Z,1.58
2022-09-07T10:33:04.110Z,1.67
2022-09-07T10:38:17.538Z,1.35
2022-09-07T10:43:39.363Z,1.30
2022-09-07T10:48:53.017Z,1.27
2022-09-07T11:05:19.421Z,1.30
2022-09-07T11:10:34.259Z,1.60
2022-09-07T11:15:44.206Z,1.30
2022-09-07T11:20:55.545Z,1.60
2022-09-07T11:26:08.622Z,1.15
2022-09-07T11:31:20.539Z,1.45
2022-09-07T11:36:27.770Z,1.17
2022-09-07T11:41:35.495Z,1.30
2022-09-07T11:46:45.727Z,1.25
2022-09-07T11:51:54.689Z,1.40
2022-09-07T11:57:09.524Z,1.30
2022-09-07T12:02:58.231Z,1.30
2022-09-07T12:08:35.280Z,1.38
2022-09-07T12:13:55.140Z,1.17
2022-09-07T12:19:15.132Z,1.17
2022-09-07T12:24:40.444Z,1.00
2022-09-07T12:29:45.624Z,0.93
2022-09-07T12:34:55.244Z,1.20
2022-09-07T12:40:33.318Z,1.20
2022-09-07T12:45:53.598Z,1.08
2022-09-07T12:51:03.543Z,1.00
2022-09-07T12:56:21.629Z,1.00
2022-09-07T13:01:38.228Z,1.10
2022-09-07T13:07:06.562Z,1.70
2022-09-07T13:17:59.398Z,1.42
2022-09-07T13:23:23.623Z,1.30
2022-09-07T13:28:40.327Z,1.30
2022-09-07T13:33:48.380Z,1.40
2022-09-07T13:38:53.368Z,1.60
2022-09-07T13:44:01.555Z,1.30
2022-09-07T13:49:18.574Z,1.30
2022-09-07T13:54:39.741Z,1.40
2022-09-07T13:59:44.339Z,1.20
2022-09-07T14:04:52.472Z,1.42
2022-09-07T14:15:24.243Z,1.77
2022-09-07T14:20:29.947Z,1.60
2022-09-07T14:26:16.141Z,1.30
2022-09-07T14:30:59.162Z,1.13
2022-09-07T14:36:23.219Z,1.30
2022-09-07T14:41:33.102Z,1.55
2022-09-07T14:46:39.017Z,1.33
2022-09-07T14:51:48.422Z,1.50
2022-09-07T14:57:02.581Z,1.50
2022-09-07T15:02:25.264Z,2.10
2022-09-07T15:07:31.375Z,1.63
2022-09-07T15:12:38.803Z,1.40
2022-09-07T15:17:43.695Z,1.70
2022-09-07T15:22:49.342Z,1.50
2022-09-07T15:27:55.110Z,1.50
2022-09-07T15:33:01.008Z,1.40
2022-09-07T15:38:59.339Z,1.65
2022-09-07T15:43:30.499Z,1.60
2022-09-07T15:48:36.313Z,2.17
2022-09-07T15:59:06.075Z,1.80
2022-09-07T16:04:14.921Z,2.03
2022-09-07T16:09:22.458Z,2.10
2022-09-07T16:14:26.372Z,1.90
2022-09-07T16:19:30.443Z,1.75
2022-09-07T16:24:36.480Z,2.20
2022-09-07T16:29:41.515Z,2.35
2022-09-07T16:34:45.497Z,2.47
2022-09-07T16:39:51.637Z,2.50
2022-09-07T16:46:02.704Z,3.03
2022-09-07T16:50:19.923Z,3.17
2022-09-07T16:55:25.589Z,2.70
2022-09-07T17:00:32.401Z,3.70
2022-09-07T17:05:40.449Z,2.95
2022-09-07T17:10:45.872Z,2.42
2022-09-07T17:15:51.245Z,2.33
2022-09-07T17:20:58.342Z,2.42
2022-09-07T17:26:09.121Z,2.20
2022-09-07T17:32:23.824Z,3.17
2022-09-07T17:36:39.833Z,4.72
2022-09-07T17:41:46.785Z,3.13
2022-09-07T17:46:51.038Z,3.10
2022-09-07T17:51:55.230Z,2.97
2022-09-07T17:57:00.672Z,3.08
2022-09-07T18:02:05.227Z,2.45
2022-09-07T18:07:09.212Z,2.65
2022-09-07T18:12:14.690Z,3.13
2022-09-07T18:17:18.628Z,3.17
2022-09-07T18:22:23.362Z,3.05
2022-09-07T18:27:28.911Z,3.78
2022-09-07T18:32:32.891Z,2.90
2022-09-07T18:37:37.218Z,3.25
2022-09-07T18:42:43.403Z,2.83
2022-09-07T18:47:48.150Z,3.00
2022-09-07T18:52:52.786Z,2.80
2022-09-07T18:57:59.162Z,3.13
2022-09-07T19:03:03.117Z,3.00
2022-09-07T19:08:08.730Z,3.20
2022-09-07T19:13:14.204Z,2.83
2022-09-07T19:18:18.475Z,3.38
2022-09-07T19:23:22.459Z,2.42
2022-09-07T19:28:27.910Z,3.05
2022-09-07T19:33:32.583Z,2.75
2022-09-07T19:38:37.038Z,2.50
2022-09-07T19:43:42.336Z,2.85
2022-09-07T19:48:47.732Z,2.58
2022-09-07T19:53:51.703Z,2.20
2022-09-07T19:58:57.194Z,2.65
2022-09-07T20:04:03.606Z,2.28
2022-09-07T20:09:09.076Z,2.65
2022-09-07T20:14:14.813Z,2.80
2022-09-07T20:19:19.717Z,2.40
2022-09-07T20:24:24.811Z,3.92
2022-09-07T20:29:31.410Z,2.55
2022-09-07T20:34:35.492Z,2.50
2022-09-07T20:39:39.856Z,3.05
2022-09-07T20:44:45.383Z,2.55
2022-09-07T20:49:49.731Z,2.03
2022-09-07T20:54:53.646Z,2.47
2022-09-07T20:59:58.940Z,2.45
2022-09-07T21:05:03.329Z,2.35
2022-09-07T21:10:08.369Z,2.35
2022-09-07T21:15:13.792Z,2.45
2022-09-07T21:20:17.850Z,2.45
2022-09-07T21:25:21.739Z,2.58
2022-09-07T21:30:27.172Z,2.17
2022-09-07T21:35:31.083Z,2.47
2022-09-07T21:40:35.345Z,2.38
2022-09-07T21:45:40.790Z,2.75
2022-09-07T21:50:46.891Z,2.65
2022-09-07T21:55:56.313Z,2.60
2022-09-07T22:06:54.491Z,2.70
2022-09-07T22:12:00.057Z,3.10
2022-09-07T22:17:04.113Z,2.67
2022-09-07T22:22:09.514Z,2.65
2022-09-07T22:27:13.804Z,2.83
2022-09-07T22:32:17.786Z,2.50
2022-09-07T22:37:23.064Z,2.05
2022-09-07T22:42:26.977Z,2.67
2022-09-07T22:47:31.410Z,2.30
2022-09-07T22:52:36.997Z,2.53
2022-09-07T22:57:40.937Z,2.85
2022-09-07T23:02:45.003Z,2.15
2022-09-07T23:07:51.634Z,2.45
2022-09-07T23:12:55.994Z,2.72
2022-09-07T23:17:59.917Z,2.75
2022-09-07T23:23:05.236Z,2.38
2022-09-07T23:28:12.382Z,2.40
2022-09-07T23:33:16.925Z,2.08
2022-09-07T23:38:22.866Z,2.50
2022-09-07T23:43:28.319Z,1.98
2022-09-07T23:48:32.744Z,2.75
2022-09-07T23:53:38.060Z,2.35
2022-09-07T23:58:42.467Z,2.40
